Time;durP1;ratioP1;P1;durP2;ratioP2;P2;SDS_P1;SDS_P2;PMS_P1;PMS_P2;Temp;Humidity;BMP_temperature;BMP_pressure;BME280_temperature;BME280_humidity;BME280_pressure;Samples;Min_cycle;Max_cycle;Signal;HPM_P1;HPM_P2
2022/07/31 00:01:30;;;;;;;5.70;2.40;;;18.90;99.90;;;;;;5052452;28;20045;-73
2022/07/31 00:03:56;;;;;;;4.13;1.95;;;18.90;99.90;;;;;;5045948;28;20395;-73
2022/07/31 00:06:21;;;;;;;4.68;1.90;;;18.90;99.90;;;;;;5050273;28;20087;-73
2022/07/31 00:08:49;;;;;;;8.85;2.20;;;18.90;99.90;;;;;;5049482;28;20483;-73
2022/07/31 00:11:15;;;;;;;6.00;2.40;;;18.90;99.90;;;;;;5043963;28;20037;-73
2022/07/31 00:13:40;;;;;;;6.60;2.90;;;18.80;99.90;;;;;;5040275;28;20463;-73
2022/07/31 00:16:06;;;;;;;4.88;2.67;;;18.80;99.90;;;;;;5049744;28;20495;-73
2022/07/31 00:18:33;;;;;;;3.88;2.80;;;18.80;99.90;;;;;;5052489;28;20478;-74
2022/07/31 00:21:01;;;;;;;5.10;2.60;;;18.80;99.90;;;;;;5052695;28;20128;-73
2022/07/31 00:23:27;;;;;;;4.32;2.97;;;18.80;99.90;;;;;;5043145;28;20033;-73
2022/07/31 00:25:53;;;;;;;4.38;3.00;;;18.80;99.90;;;;;;5048404;28;20091;-73
2022/07/31 00:28:19;;;;;;;4.28;3.00;;;18.70;99.90;;;;;;5040386;28;20041;-72
2022/07/31 00:30:44;;;;;;;7.80;3.20;;;18.70;99.90;;;;;;5039839;28;20507;-72
2022/07/31 00:33:10;;;;;;;4.80;2.47;;;18.70;99.90;;;;;;5051310;28;20141;-72
2022/07/31 00:35:35;;;;;;;3.78;2.58;;;18.60;99.90;;;;;;5049015;28;20037;-72
2022/07/31 00:38:01;;;;;;;4.13;2.40;;;18.60;99.90;;;;;;5044346;28;20041;-72
2022/07/31 00:40:26;;;;;;;5.80;3.00;;;18.50;99.90;;;;;;5038547;28;20510;-72
2022/07/31 00:42:52;;;;;;;9.02;2.70;;;18.60;99.90;;;;;;5052188;28;20131;-72
2022/07/31 00:45:18;;;;;;;4.47;2.70;;;18.50;99.90;;;;;;5049818;28;21802;-72
2022/07/31 00:47:43;;;;;;;4.07;2.88;;;18.50;99.90;;;;;;5052660;28;20120;-72
2022/07/31 00:50:10;;;;;;;4.90;2.72;;;18.40;99.90;;;;;;5040425;28;20506;-72
2022/07/31 00:52:36;;;;;;;4.50;2.60;;;18.40;99.90;;;;;;5034147;28;20396;-72
2022/07/31 00:55:02;;;;;;;3.42;2.45;;;18.40;99.90;;;;;;5042634;28;20059;-72
2022/07/31 00:57:28;;;;;;;7.03;2.33;;;18.30;99.90;;;;;;5042568;28;20052;-72
2022/07/31 00:59:53;;;;;;;6.22;2.30;;;18.30;99.90;;;;;;5048276;28;20036;-72
2022/07/31 01:02:19;;;;;;;4.90;2.63;;;18.30;99.90;;;;;;5050616;28;20045;-72
2022/07/31 01:04:44;;;;;;;4.38;2.60;;;18.30;99.90;;;;;;5055929;28;20083;-72
2022/07/31 01:07:10;;;;;;;5.05;2.72;;;18.20;99.90;;;;;;5034131;28;20049;-72
2022/07/31 01:09:36;;;;;;;9.38;2.78;;;18.20;99.90;;;;;;5051544;28;20049;-72
2022/07/31 01:12:19;;;;;;;2.80;2.58;;;18.20;99.90;;;;;;5051712;28;20507;-72
2022/07/31 01:14:49;;;;;;;9.02;3.33;;;18.20;99.90;;;;;;5051748;28;20407;-72
2022/07/31 01:17:17;;;;;;;3.75;2.97;;;18.10;99.90;;;;;;5050578;28;20528;-72
2022/07/31 01:19:45;;;;;;;4.60;2.70;;;18.20;99.90;;;;;;5050617;28;20403;-71
2022/07/31 01:22:54;;;;;;;4.90;2.90;;;18.20;99.90;;;;;;5051539;28;20049;-72
2022/07/31 01:25:52;;;;;;;6.72;3.35;;;18.20;99.90;;;;;;5028804;28;20496;-72
2022/07/31 01:28:23;;;;;;;5.88;3.10;;;18.20;99.90;;;;;;5013454;28;20050;-71
2022/07/31 01:31:15;;;;;;;3.65;3.13;;;18.20;99.90;;;;;;5049130;28;20033;-72
2022/07/31 01:34:02;;;;;;;3.63;2.97;;;18.20;99.90;;;;;;5039512;28;20041;-72
2022/07/31 01:36:33;;;;;;;6.13;2.72;;;18.20;99.90;;;;;;5044576;28;20949;-72
2022/07/31 01:39:00;;;;;;;6.50;3.10;;;18.20;99.90;;;;;;5051051;28;20073;-72
2022/07/31 01:41:33;;;;;;;4.55;2.70;;;18.20;99.90;;;;;;5049642;28;20101;-72
2022/07/31 01:44:00;;;;;;;5.97;2.70;;;18.10;99.90;;;;;;5051451;28;20410;-72
2022/07/31 01:46:27;;;;;;;4.28;2.50;;;18.20;99.90;;;;;;5043496;28;20143;-71
2022/07/31 01:48:56;;;;;;;3.97;3.15;;;18.10;99.90;;;;;;5050523;28;20053;-72
2022/07/31 01:51:24;;;;;;;5.20;3.30;;;18.10;99.90;;;;;;5043228;28;20506;-72
2022/07/31 01:53:51;;;;;;;6.40;4.03;;;18.10;99.90;;;;;;5033303;28;20033;-72
2022/07/31 01:56:19;;;;;;;6.70;3.83;;;18.10;99.90;;;;;;5039312;28;20048;-72
2022/07/31 01:58:47;;;;;;;5.72;3.75;;;18.10;99.90;;;;;;5051309;28;20036;-72
2022/07/31 02:01:13;;;;;;;6.22;3.88;;;18.10;99.90;;;;;;5048768;28;20091;-72
2022/07/31 02:03:40;;;;;;;5.72;4.47;;;18.10;99.90;;;;;;5046273;28;20052;-72
2022/07/31 02:06:06;;;;;;;8.30;4.30;;;18.10;99.90;;;;;;5042181;28;20037;-72
2022/07/31 02:08:32;;;;;;;7.30;4.25;;;18.10;99.90;;;;;;5046504;28;20098;-71
2022/07/31 02:10:59;;;;;;;5.88;4.50;;;18.10;99.90;;;;;;5045039;28;20037;-72
2022/07/31 02:13:26;;;;;;;6.00;4.07;;;18.20;99.90;;;;;;5049394;28;20037;-72
2022/07/31 02:15:54;;;;;;;5.07;4.35;;;18.20;99.90;;;;;;5044565;28;20036;-72
2022/07/31 02:18:21;;;;;;;7.28;4.82;;;18.20;99.90;;;;;;5038824;28;20537;-72
2022/07/31 02:20:49;;;;;;;6.72;3.97;;;18.20;99.90;;;;;;5040935;28;20123;-71
2022/07/31 02:23:15;;;;;;;4.90;3.90;;;18.20;99.90;;;;;;5038805;28;20129;-72
2022/07/31 02:25:42;;;;;;;7.45;3.97;;;18.20;99.90;;;;;;5028932;28;20123;-72
2022/07/31 02:28:12;;;;;;;5.75;3.58;;;18.20;99.90;;;;;;5038892;28;20451;-72
2022/07/31 02:30:41;;;;;;;8.65;3.50;;;18.30;99.90;;;;;;5045371;28;20036;-72
2022/07/31 02:33:10;;;;;;;5.38;3.88;;;18.30;99.90;;;;;;5050555;28;20045;-72
2022/07/31 02:35:38;;;;;;;7.97;3.63;;;18.30;99.90;;;;;;5045512;28;20166;-72
2022/07/31 02:38:04;;;;;;;5.70;3.92;;;18.30;99.90;;;;;;5044778;28;20049;-72
2022/07/31 02:40:30;;;;;;;7.65;3.50;;;18.40;99.90;;;;;;5050246;28;20055;-72
2022/07/31 02:42:56;;;;;;;6.68;4.25;;;18.30;99.90;;;;;;5043340;28;20053;-72
2022/07/31 02:45:22;;;;;;;6.28;3.80;;;18.30;99.90;;;;;;5040569;28;20041;-72
2022/07/31 02:47:48;;;;;;;5.30;3.90;;;18.30;99.90;;;;;;5044858;28;20119;-72
2022/07/31 02:50:15;;;;;;;6.68;4.22;;;18.30;99.90;;;;;;5033375;28;20128;-72
2022/07/31 02:52:42;;;;;;;7.75;4.60;;;18.30;99.90;;;;;;5049026;28;20052;-72
2022/07/31 02:55:08;;;;;;;5.80;4.05;;;18.30;99.90;;;;;;5050449;28;20083;-72
2022/07/31 02:57:34;;;;;;;5.95;4.20;;;18.30;99.90;;;;;;5045395;28;20048;-72
2022/07/31 03:00:00;;;;;;;4.93;3.78;;;18.30;99.90;;;;;;5054452;28;20041;-72
2022/07/31 03:02:25;;;;;;;10.63;4.65;;;18.30;99.90;;;;;;5048264;28;20037;-72
2022/07/31 03:04:51;;;;;;;6.30;4.63;;;18.30;99.90;;;;;;5036995;28;20037;-72
2022/07/31 03:07:16;;;;;;;6.80;4.60;;;18.30;99.90;;;;;;5048980;28;20053;-72
2022/07/31 03:09:42;;;;;;;6.72;4.65;;;18.30;99.90;;;;;;5042557;28;20056;-72
2022/07/31 03:12:08;;;;;;;5.80;5.20;;;18.30;99.90;;;;;;5040618;28;20037;-72
2022/07/31 03:14:35;;;;;;;6.68;4.35;;;18.30;99.90;;;;;;5045455;28;20055;-72
2022/07/31 03:17:02;;;;;;;5.82;5.00;;;18.20;99.90;;;;;;5064857;28;20054;-72
2022/07/31 03:19:28;;;;;;;8.55;5.10;;;18.20;99.90;;;;;;5031608;28;20422;-72
2022/07/31 03:21:55;;;;;;;8.23;4.93;;;18.20;99.90;;;;;;5049468;28;20032;-72
2022/07/31 03:24:21;;;;;;;9.57;5.05;;;18.20;99.90;;;;;;5044384;28;20056;-72
2022/07/31 03:26:47;;;;;;;6.85;5.05;;;18.20;99.90;;;;;;5064882;28;20080;-72
2022/07/31 03:29:13;;;;;;;10.88;4.95;;;18.10;99.90;;;;;;5046520;28;20084;-72
2022/07/31 03:31:38;;;;;;;7.38;4.53;;;18.10;99.90;;;;;;5049383;28;20434;-72
2022/07/31 03:34:04;;;;;;;10.68;4.57;;;18.10;99.90;;;;;;5051391;28;20049;-72
2022/07/31 03:36:30;;;;;;;8.88;4.18;;;18.00;99.90;;;;;;5046379;28;20120;-73
2022/07/31 03:38:56;;;;;;;5.97;4.43;;;18.10;99.90;;;;;;5047344;28;20037;-72
2022/07/31 03:41:22;;;;;;;7.50;4.53;;;18.10;99.90;;;;;;5044491;28;20045;-72
2022/07/31 03:43:49;;;;;;;8.50;4.38;;;18.00;99.90;;;;;;5065580;28;20124;-72
2022/07/31 03:46:17;;;;;;;7.45;4.25;;;18.00;99.90;;;;;;5045286;28;20046;-72
2022/07/31 03:48:43;;;;;;;6.38;4.57;;;18.00;99.90;;;;;;5052692;28;20041;-72
2022/07/31 03:51:09;;;;;;;8.02;4.82;;;18.00;99.90;;;;;;5052773;28;20087;-72
2022/07/31 03:53:36;;;;;;;6.72;4.70;;;18.00;99.90;;;;;;5053502;28;20089;-72
2022/07/31 03:56:03;;;;;;;7.90;4.90;;;18.00;99.90;;;;;;5051233;28;20041;-72
2022/07/31 03:58:30;;;;;;;6.07;4.22;;;18.00;99.90;;;;;;5044679;28;20118;-72
2022/07/31 04:00:56;;;;;;;7.28;5.00;;;17.90;99.90;;;;;;5048053;28;20399;-72
2022/07/31 04:03:22;;;;;;;6.32;4.55;;;17.90;99.90;;;;;;5041339;28;20041;-74
2022/07/31 04:05:47;;;;;;;7.45;5.15;;;17.90;99.90;;;;;;5047461;28;20175;-73
2022/07/31 04:08:14;;;;;;;7.63;4.97;;;17.90;99.90;;;;;;5053092;28;20036;-72
2022/07/31 04:10:40;;;;;;;6.68;4.88;;;17.90;99.90;;;;;;5048465;28;20048;-72
2022/07/31 04:13:06;;;;;;;8.10;5.22;;;17.90;99.90;;;;;;5047176;28;20045;-73
2022/07/31 04:15:32;;;;;;;10.60;4.80;;;17.90;99.90;;;;;;5040711;28;20037;-73
2022/07/31 04:17:58;;;;;;;5.22;4.60;;;18.00;99.90;;;;;;5034082;28;20061;-73
2022/07/31 04:20:24;;;;;;;5.60;4.82;;;18.00;99.90;;;;;;5051133;28;20041;-73
2022/07/31 04:22:49;;;;;;;4.82;4.32;;;18.00;99.90;;;;;;5047091;28;20078;-73
2022/07/31 04:25:15;;;;;;;7.47;4.60;;;18.00;99.90;;;;;;5015967;28;20041;-72
2022/07/31 04:27:41;;;;;;;6.60;4.75;;;18.00;99.90;;;;;;5037818;28;20139;-73
2022/07/31 04:30:07;;;;;;;5.10;4.50;;;18.00;99.90;;;;;;5034138;28;20048;-73
2022/07/31 04:32:37;;;;;;;5.40;4.20;;;18.00;99.90;;;;;;5042035;28;20060;-73
2022/07/31 04:35:04;;;;;;;6.15;4.50;;;18.00;99.90;;;;;;5045333;28;20063;-74
2022/07/31 04:37:29;;;;;;;6.40;4.38;;;18.10;99.90;;;;;;5051909;28;20132;-73
2022/07/31 04:39:55;;;;;;;7.22;4.13;;;18.10;99.90;;;;;;5050372;28;20108;-72
2022/07/31 04:42:21;;;;;;;6.90;4.60;;;18.10;99.90;;;;;;5037816;28;20553;-74
2022/07/31 04:44:47;;;;;;;7.70;4.40;;;18.20;99.90;;;;;;5047337;28;20135;-72
2022/07/31 04:47:12;;;;;;;5.53;4.13;;;18.10;99.90;;;;;;5052088;28;20067;-73
2022/07/31 04:49:38;;;;;;;4.93;4.18;;;18.20;99.90;;;;;;5051911;28;20095;-73
2022/07/31 04:52:05;;;;;;;10.20;4.00;;;18.20;99.90;;;;;;5035590;28;20136;-73
2022/07/31 04:54:31;;;;;;;5.30;4.38;;;18.20;99.90;;;;;;5041258;28;20475;-74
2022/07/31 04:56:57;;;;;;;7.32;4.75;;;18.20;99.90;;;;;;5041558;28;20073;-73
2022/07/31 04:59:23;;;;;;;4.68;4.13;;;18.20;99.90;;;;;;5044293;28;20061;-73
2022/07/31 05:01:49;;;;;;;7.00;4.35;;;18.20;99.90;;;;;;5048877;28;20516;-72
2022/07/31 05:04:16;;;;;;;5.72;4.22;;;18.20;99.90;;;;;;5045225;28;20611;-72
2022/07/31 05:06:49;;;;;;;8.00;4.82;;;18.20;99.90;;;;;;5051861;28;20076;-73
2022/07/31 05:09:17;;;;;;;6.13;4.68;;;18.30;99.90;;;;;;5050026;28;20086;-72
2022/07/31 05:11:44;;;;;;;5.00;3.95;;;18.30;99.90;;;;;;5035420;28;20041;-73
2022/07/31 05:14:12;;;;;;;6.13;4.57;;;18.30;99.90;;;;;;5046139;28;20480;-73
2022/07/31 05:16:37;;;;;;;5.70;4.50;;;18.30;99.90;;;;;;5036520;28;20641;-72
2022/07/31 05:19:04;;;;;;;5.25;4.45;;;18.30;99.90;;;;;;5046560;28;20044;-72
2022/07/31 05:21:30;;;;;;;7.38;4.30;;;18.40;99.90;;;;;;5051143;28;20036;-72
2022/07/31 05:23:58;;;;;;;4.90;4.28;;;18.40;99.90;;;;;;5046554;28;20059;-72
2022/07/31 05:26:24;;;;;;;6.97;4.32;;;18.50;99.90;;;;;;5051128;28;20060;-72
2022/07/31 05:28:51;;;;;;;7.15;4.05;;;18.50;99.90;;;;;;5048424;28;20041;-72
2022/07/31 05:31:18;;;;;;;5.10;3.90;;;18.60;99.90;;;;;;5038878;28;20448;-72
2022/07/31 05:33:46;;;;;;;4.68;3.72;;;18.60;99.90;;;;;;5041901;28;20086;-73
2022/07/31 05:36:12;;;;;;;7.90;3.92;;;18.60;99.90;;;;;;5042779;28;20420;-72
2022/07/31 05:38:42;;;;;;;4.70;4.30;;;18.70;99.90;;;;;;5047306;28;20055;-72
2022/07/31 05:41:08;;;;;;;7.57;4.60;;;18.70;99.90;;;;;;5050574;28;20068;-72
2022/07/31 05:43:34;;;;;;;6.43;4.70;;;18.70;99.90;;;;;;5036911;28;20126;-72
2022/07/31 05:46:00;;;;;;;5.45;4.55;;;18.80;99.90;;;;;;5050101;28;20037;-72
2022/07/31 05:48:26;;;;;;;6.38;4.70;;;18.80;99.90;;;;;;5038697;28;20064;-73
2022/07/31 05:50:52;;;;;;;7.13;4.75;;;18.80;99.90;;;;;;5048859;28;20032;-73
2022/07/31 05:53:19;;;;;;;5.88;4.65;;;18.80;99.90;;;;;;5042274;28;20107;-72
2022/07/31 05:55:47;;;;;;;7.93;4.88;;;18.90;99.90;;;;;;5045779;28;20037;-72
2022/07/31 05:58:14;;;;;;;6.22;4.63;;;18.90;99.90;;;;;;5043160;28;20072;-72
2022/07/31 06:00:40;;;;;;;8.80;4.88;;;18.90;99.90;;;;;;5047320;28;20086;-72
2022/07/31 06:03:06;;;;;;;6.25;5.07;;;18.90;99.90;;;;;;5042706;28;20072;-72
2022/07/31 06:05:32;;;;;;;8.20;5.25;;;18.90;99.90;;;;;;5044631;28;20483;-73
2022/07/31 06:07:59;;;;;;;11.57;5.88;;;19.00;99.90;;;;;;5040702;28;20527;-72
2022/07/31 06:10:26;;;;;;;6.68;5.00;;;19.00;99.90;;;;;;5050190;28;20041;-72
2022/07/31 06:12:52;;;;;;;10.02;5.47;;;19.10;99.90;;;;;;5044953;28;20041;-72
2022/07/31 06:15:18;;;;;;;6.60;5.35;;;19.10;99.90;;;;;;5040073;28;20377;-72
2022/07/31 06:17:43;;;;;;;10.55;5.72;;;19.10;99.90;;;;;;5047368;28;20503;-72
2022/07/31 06:20:10;;;;;;;12.45;5.95;;;19.20;99.90;;;;;;5032742;28;20549;-73
2022/07/31 06:22:38;;;;;;;7.57;5.88;;;19.20;99.90;;;;;;5046221;28;20034;-72
2022/07/31 06:25:04;;;;;;;8.18;5.90;;;19.30;99.90;;;;;;5064554;28;20055;-72
2022/07/31 06:27:30;;;;;;;8.73;5.50;;;19.30;99.90;;;;;;5043684;28;20083;-72
2022/07/31 06:29:56;;;;;;;11.27;5.75;;;19.30;99.90;;;;;;5062790;28;20431;-72
2022/07/31 06:32:22;;;;;;;6.30;5.45;;;19.40;99.90;;;;;;5049738;28;20564;-73
2022/07/31 06:34:48;;;;;;;9.55;5.80;;;19.40;99.90;;;;;;5050528;28;20041;-72
2022/07/31 06:37:13;;;;;;;8.35;6.18;;;19.40;99.90;;;;;;5041199;28;20397;-72
2022/07/31 06:39:39;;;;;;;7.90;5.32;;;19.50;99.90;;;;;;5045333;28;20051;-72
2022/07/31 06:42:05;;;;;;;6.93;5.70;;;19.60;99.90;;;;;;5049969;28;20051;-72
2022/07/31 06:44:32;;;;;;;6.55;5.50;;;19.70;99.90;;;;;;5040405;28;20033;-70
2022/07/31 06:46:58;;;;;;;6.15;5.30;;;19.80;99.90;;;;;;5049457;28;20044;-72
2022/07/31 06:49:24;;;;;;;7.93;5.72;;;19.90;99.90;;;;;;5044002;28;20040;-72
2022/07/31 06:51:50;;;;;;;7.00;5.47;;;19.90;99.90;;;;;;5035508;28;20041;-72
2022/07/31 06:54:16;;;;;;;11.68;5.53;;;19.90;99.90;;;;;;5035517;28;20048;-72
2022/07/31 06:56:42;;;;;;;8.40;5.78;;;20.00;99.90;;;;;;5041119;28;20037;-72
2022/07/31 06:59:07;;;;;;;6.90;5.10;;;20.00;99.90;;;;;;5042746;28;20037;-72
2022/07/31 07:01:34;;;;;;;6.85;5.10;;;20.00;99.90;;;;;;5051363;28;20040;-72
2022/07/31 07:03:59;;;;;;;6.47;5.88;;;20.10;99.90;;;;;;5045140;28;20083;-72
2022/07/31 07:06:25;;;;;;;9.00;5.63;;;20.10;99.90;;;;;;5046771;28;20037;-72
2022/07/31 07:08:51;;;;;;;12.13;6.68;;;20.20;99.90;;;;;;5040684;28;20036;-72
2022/07/31 07:11:18;;;;;;;9.52;6.20;;;20.20;99.90;;;;;;5043925;28;20127;-72
2022/07/31 07:13:44;;;;;;;7.43;6.40;;;20.30;99.90;;;;;;5041622;28;20048;-72
2022/07/31 07:16:10;;;;;;;7.57;5.88;;;20.30;99.90;;;;;;5048817;28;20049;-73
2022/07/31 07:18:36;;;;;;;7.80;5.70;;;20.30;99.90;;;;;;5045199;28;20480;-73
2022/07/31 07:21:02;;;;;;;10.65;5.15;;;20.20;99.90;;;;;;5049184;28;20102;-73
2022/07/31 07:23:27;;;;;;;7.45;5.72;;;20.30;99.90;;;;;;5036489;28;20037;-73
2022/07/31 07:25:53;;;;;;;10.13;6.85;;;20.30;99.90;;;;;;5046059;28;20055;-73
2022/07/31 07:28:19;;;;;;;8.55;6.60;;;20.30;99.90;;;;;;5039639;28;20072;-73
2022/07/31 07:30:44;;;;;;;8.93;6.18;;;20.30;99.90;;;;;;5046886;28;20049;-73
2022/07/31 07:33:10;;;;;;;11.65;7.00;;;20.40;99.90;;;;;;5045015;28;20118;-73
2022/07/31 07:35:36;;;;;;;12.77;7.13;;;20.50;99.90;;;;;;5047636;28;20098;-73
2022/07/31 07:38:02;;;;;;;7.88;6.50;;;20.50;99.90;;;;;;5046976;28;20091;-73
2022/07/31 07:40:28;;;;;;;10.85;6.97;;;20.60;99.90;;;;;;5036998;28;20064;-73
2022/07/31 07:42:54;;;;;;;10.73;7.20;;;20.60;99.90;;;;;;5041214;28;20044;-72
2022/07/31 07:45:20;;;;;;;8.95;7.30;;;20.70;99.90;;;;;;5046940;28;20037;-72
2022/07/31 07:47:46;;;;;;;9.10;7.32;;;20.70;99.90;;;;;;5046841;28;20045;-72
2022/07/31 07:50:12;;;;;;;12.60;7.25;;;20.80;99.90;;;;;;5044420;28;20059;-72
2022/07/31 07:52:38;;;;;;;8.55;7.13;;;20.80;99.90;;;;;;5046105;28;20513;-72
2022/07/31 07:55:05;;;;;;;9.15;7.65;;;20.90;99.90;;;;;;5042538;28;20037;-72
2022/07/31 07:57:31;;;;;;;15.65;8.00;;;20.90;99.90;;;;;;5041763;28;20041;-73
2022/07/31 08:00:02;;;;;;;10.95;7.55;;;20.90;99.90;;;;;;5044819;28;20549;-73
2022/07/31 08:02:27;;;;;;;10.73;7.30;;;20.90;99.90;;;;;;5042383;28;20041;-73
2022/07/31 08:04:53;;;;;;;9.55;7.93;;;21.00;99.90;;;;;;5046142;28;20499;-72
2022/07/31 08:07:33;;;;;;;10.60;8.10;;;21.10;99.90;;;;;;5044926;28;20483;-72
2022/07/31 08:09:59;;;;;;;10.68;8.00;;;21.10;99.90;;;;;;5043803;28;20048;-73
2022/07/31 08:12:26;;;;;;;10.25;7.32;;;21.20;99.90;;;;;;5042414;28;20037;-77
2022/07/31 08:14:52;;;;;;;11.07;7.43;;;21.20;99.90;;;;;;5044205;28;20185;-76
2022/07/31 08:17:18;;;;;;;10.60;7.10;;;21.20;99.90;;;;;;5045741;28;20064;-77
2022/07/31 08:19:44;;;;;;;13.95;9.77;;;21.30;99.90;;;;;;5047779;28;20491;-76
2022/07/31 08:22:10;;;;;;;12.95;7.72;;;21.40;99.90;;;;;;5044066;28;20492;-76
2022/07/31 08:24:36;;;;;;;11.40;7.32;;;21.50;99.90;;;;;;5044418;28;20121;-76
2022/07/31 08:29:46;;;;;;;8.05;6.90;;;21.60;99.90;;;;;;5028057;28;20065;-77
2022/07/31 08:32:12;;;;;;;12.48;6.30;;;21.70;99.90;;;;;;5045009;28;20431;-77
2022/07/31 08:34:38;;;;;;;8.52;5.80;;;21.80;99.90;;;;;;5043630;28;20381;-76
2022/07/31 08:37:05;;;;;;;10.02;6.15;;;21.70;99.90;;;;;;5045532;28;20048;-77
2022/07/31 08:39:32;;;;;;;7.47;5.65;;;21.70;99.90;;;;;;5042046;28;20140;-76
2022/07/31 08:41:57;;;;;;;7.00;5.53;;;21.70;99.90;;;;;;5042601;28;20045;-77
2022/07/31 08:44:23;;;;;;;11.45;5.55;;;21.70;99.90;;;;;;5043094;28;20040;-76
2022/07/31 08:46:53;;;;;;;7.32;5.20;;;21.60;99.90;;;;;;5043648;28;20052;-77
2022/07/31 08:49:26;;;;;;;7.10;5.72;;;21.50;99.90;;;;;;5047876;28;20065;-71
2022/07/31 08:51:54;;;;;;;8.93;5.80;;;21.40;99.90;;;;;;5043671;28;20041;-75
2022/07/31 08:54:20;;;;;;;8.45;5.82;;;21.40;99.90;;;;;;5043145;28;20576;-73
2022/07/31 08:56:51;;;;;;;7.45;5.97;;;21.40;99.90;;;;;;5043093;28;20037;-76
2022/07/31 08:59:17;;;;;;;10.70;6.40;;;21.30;99.90;;;;;;5062402;28;20430;-77
2022/07/31 09:01:43;;;;;;;8.93;6.10;;;21.30;99.90;;;;;;5041570;28;20925;-76
2022/07/31 09:04:09;;;;;;;8.68;6.30;;;21.20;99.90;;;;;;5041451;28;20634;-72
2022/07/31 09:06:36;;;;;;;9.57;6.60;;;21.20;99.90;;;;;;5035940;28;20435;-73
2022/07/31 09:09:02;;;;;;;9.10;6.75;;;21.10;99.90;;;;;;5040677;28;20632;-73
2022/07/31 09:11:28;;;;;;;7.88;6.50;;;21.00;99.90;;;;;;5041520;28;20442;-73
2022/07/31 09:14:00;;;;;;;11.20;7.57;;;20.90;99.90;;;;;;5038288;28;20041;-74
2022/07/31 09:16:26;;;;;;;8.93;8.00;;;20.80;99.90;;;;;;5042729;28;20037;-73
2022/07/31 09:19:09;;;;;;;14.35;8.27;;;20.80;99.90;;;;;;5045178;28;20057;-72
2022/07/31 09:21:43;;;;;;;9.13;8.23;;;20.80;99.90;;;;;;5027608;28;20099;-72
2022/07/31 09:24:10;;;;;;;11.65;8.20;;;20.80;99.90;;;;;;5042359;28;20397;-73
2022/07/31 09:26:39;;;;;;;12.07;7.97;;;20.80;99.90;;;;;;5042439;28;20087;-74
2022/07/31 09:29:10;;;;;;;11.38;8.40;;;20.80;99.90;;;;;;5045575;28;20369;-72
2022/07/31 09:31:37;;;;;;;14.73;9.00;;;20.80;99.90;;;;;;5044657;28;20414;-72
2022/07/31 09:34:04;;;;;;;10.02;8.98;;;20.70;99.90;;;;;;5043694;28;20475;-71
2022/07/31 09:36:31;;;;;;;11.50;8.85;;;20.70;99.90;;;;;;5045788;28;20139;-72
2022/07/31 09:38:58;;;;;;;14.07;8.90;;;20.80;99.90;;;;;;5041086;28;20053;-73
2022/07/31 09:41:24;;;;;;;12.27;9.35;;;20.70;99.90;;;;;;5041100;28;20110;-75
2022/07/31 09:43:59;;;;;;;12.15;8.88;;;20.70;99.90;;;;;;5039473;28;20084;-72
2022/07/31 09:46:26;;;;;;;10.32;9.07;;;20.70;99.90;;;;;;5042812;28;20419;-72
2022/07/31 09:48:54;;;;;;;11.98;8.52;;;20.70;99.90;;;;;;5042721;28;20391;-72
2022/07/31 09:51:21;;;;;;;13.52;8.50;;;20.70;99.90;;;;;;5028156;28;20044;-72
2022/07/31 09:53:55;;;;;;;12.02;8.85;;;20.70;99.90;;;;;;5043772;28;20388;-71
2022/07/31 09:56:32;;;;;;;13.25;9.10;;;20.70;99.90;;;;;;5023664;28;20479;-71
2022/07/31 09:58:58;;;;;;;11.60;9.00;;;20.80;99.90;;;;;;5040338;28;20653;-72
2022/07/31 10:01:25;;;;;;;12.50;9.75;;;20.90;99.90;;;;;;5041025;28;20407;-72
2022/07/31 10:03:52;;;;;;;11.93;9.48;;;20.90;99.90;;;;;;5041159;28;20049;-72
2022/07/31 10:06:19;;;;;;;11.55;9.00;;;20.90;99.90;;;;;;5040295;28;20131;-72
2022/07/31 10:08:46;;;;;;;11.80;9.70;;;21.00;99.90;;;;;;5040640;28;20057;-72
2022/07/31 10:11:19;;;;;;;11.32;9.82;;;21.00;99.90;;;;;;5041387;28;20036;-72
2022/07/31 10:13:49;;;;;;;15.57;10.00;;;21.00;99.90;;;;;;5024729;28;20076;-73
2022/07/31 10:16:16;;;;;;;10.50;9.40;;;21.20;99.90;;;;;;5038998;28;20054;-73
2022/07/31 10:18:46;;;;;;;10.88;8.55;;;21.20;99.90;;;;;;5043508;28;20067;-73
2022/07/31 10:21:15;;;;;;;11.25;9.77;;;21.20;99.90;;;;;;5041929;28;20511;-73
2022/07/31 10:23:43;;;;;;;11.43;10.15;;;21.30;99.90;;;;;;5039078;28;20043;-72
2022/07/31 10:26:10;;;;;;;12.00;9.95;;;21.30;99.90;;;;;;5043305;28;20391;-73
2022/07/31 10:28:36;;;;;;;11.85;9.23;;;21.40;99.90;;;;;;5041112;28;20055;-73
2022/07/31 10:31:03;;;;;;;10.90;9.73;;;21.40;99.90;;;;;;5038080;28;20052;-72
2022/07/31 10:33:29;;;;;;;10.93;9.75;;;21.50;99.90;;;;;;5039999;28;20048;-73
2022/07/31 10:36:05;;;;;;;11.10;10.00;;;21.50;99.90;;;;;;5039489;28;20048;-74
2022/07/31 10:38:52;;;;;;;11.32;10.13;;;21.50;99.90;;;;;;5060637;28;20087;-73
2022/07/31 10:41:45;;;;;;;10.75;9.65;;;21.50;99.90;;;;;;5049000;28;20117;-74
2022/07/31 10:44:38;;;;;;;15.10;10.68;;;21.40;99.90;;;;;;5043063;28;20047;-74
2022/07/31 10:47:14;;;;;;;13.25;11.52;;;21.40;99.90;;;;;;5054218;28;20053;-73
2022/07/31 10:49:42;;;;;;;13.15;10.98;;;21.50;99.90;;;;;;5039542;28;20048;-79
2022/07/31 10:52:08;;;;;;;12.93;11.00;;;21.40;99.90;;;;;;5042574;28;20049;-79
2022/07/31 10:54:45;;;;;;;16.55;11.52;;;21.50;99.90;;;;;;5044156;28;20063;-80
2022/07/31 10:57:25;;;;;;;12.15;10.60;;;21.50;99.90;;;;;;5043979;28;20037;-79
2022/07/31 10:59:52;;;;;;;13.43;10.07;;;21.50;99.90;;;;;;5037741;28;20075;-79
2022/07/31 11:02:27;;;;;;;11.50;9.98;;;21.40;99.90;;;;;;5044488;28;20131;-80
2022/07/31 11:05:04;;;;;;;10.73;9.38;;;21.30;99.90;;;;;;5024929;28;20102;-80
2022/07/31 11:07:30;;;;;;;11.20;10.00;;;21.30;99.90;;;;;;5042947;28;20037;-80
2022/07/31 11:10:10;;;;;;;11.35;10.20;;;21.30;99.90;;;;;;5042093;28;20044;-79
2022/07/31 11:12:36;;;;;;;13.68;9.88;;;21.30;99.90;;;;;;5025696;28;20044;-78
2022/07/31 11:15:02;;;;;;;14.35;10.77;;;21.20;99.90;;;;;;5042501;28;20029;-79
2022/07/31 11:17:37;;;;;;;11.65;10.05;;;21.20;99.90;;;;;;5043081;28;20132;-79
2022/07/31 11:20:05;;;;;;;13.18;10.48;;;21.20;99.90;;;;;;5046776;28;20044;-80
2022/07/31 11:22:31;;;;;;;14.77;10.73;;;21.10;99.90;;;;;;5048661;28;20045;-77
2022/07/31 11:24:57;;;;;;;13.02;10.77;;;21.10;99.90;;;;;;5046979;28;20045;-74
2022/07/31 11:27:33;;;;;;;16.70;11.30;;;21.00;99.90;;;;;;5050930;28;20517;-74
2022/07/31 11:30:07;;;;;;;15.38;11.48;;;20.90;99.90;;;;;;5049616;28;20076;-75
2022/07/31 11:32:32;;;;;;;14.75;10.68;;;20.80;99.90;;;;;;5032659;28;20104;-74
2022/07/31 11:34:58;;;;;;;15.27;11.57;;;20.70;99.90;;;;;;5050808;28;20128;-74
2022/07/31 11:37:33;;;;;;;14.57;12.05;;;20.60;99.90;;;;;;5050621;28;20538;-74
2022/07/31 11:39:58;;;;;;;16.10;12.82;;;20.60;99.90;;;;;;5041760;28;20044;-74
2022/07/31 11:42:27;;;;;;;19.42;12.98;;;20.50;99.90;;;;;;5046248;28;20041;-74
2022/07/31 11:45:00;;;;;;;14.48;12.95;;;20.40;99.90;;;;;;5033714;28;20076;-74
2022/07/31 11:47:37;;;;;;;15.05;13.45;;;20.30;99.90;;;;;;5038183;28;20545;-74
2022/07/31 11:50:03;;;;;;;16.63;14.93;;;20.20;99.90;;;;;;5025297;28;20053;-74
2022/07/31 11:52:29;;;;;;;21.15;14.85;;;20.20;99.90;;;;;;5041102;28;20045;-73
2022/07/31 11:55:05;;;;;;;22.23;15.82;;;20.10;99.90;;;;;;5046568;28;20040;-73
2022/07/31 11:57:34;;;;;;;17.35;15.57;;;20.10;99.90;;;;;;5050713;28;20446;-73
2022/07/31 12:00:26;;;;;;;21.90;17.23;;;20.10;99.90;;;;;;5040010;28;20083;-73
2022/07/31 12:02:53;;;;;;;23.50;17.95;;;20.10;99.90;;;;;;5038170;28;20462;-73
2022/07/31 12:05:19;;;;;;;19.77;17.77;;;20.00;99.90;;;;;;5039896;28;20124;-73
2022/07/31 12:07:44;;;;;;;21.02;18.40;;;20.00;99.90;;;;;;5045429;28;20044;-74
2022/07/31 12:10:12;;;;;;;25.27;19.63;;;20.00;99.90;;;;;;5047898;28;20052;-74
2022/07/31 12:12:41;;;;;;;23.33;20.05;;;20.00;99.90;;;;;;5046815;28;20128;-75
2022/07/31 12:15:18;;;;;;;25.15;20.90;;;20.10;99.90;;;;;;5039652;28;20049;-75
2022/07/31 12:17:45;;;;;;;24.25;20.55;;;20.20;99.90;;;;;;5044257;28;20034;-75
2022/07/31 12:20:11;;;;;;;27.08;21.60;;;20.20;99.90;;;;;;5044765;28;20052;-75
2022/07/31 12:22:37;;;;;;;25.80;21.90;;;20.20;99.90;;;;;;5042745;28;20033;-75
2022/07/31 12:25:08;;;;;;;26.45;21.30;;;20.20;99.90;;;;;;5044245;28;20084;-75
2022/07/31 12:27:37;;;;;;;29.08;22.38;;;20.20;99.90;;;;;;5022019;28;20033;-75
2022/07/31 12:30:16;;;;;;;31.00;23.80;;;20.20;99.90;;;;;;5043672;28;20052;-75
2022/07/31 12:32:42;;;;;;;30.90;25.02;;;20.20;99.90;;;;;;5039918;28;20063;-75
2022/07/31 12:35:08;;;;;;;29.80;25.95;;;20.30;99.90;;;;;;5044477;28;20041;-75
2022/07/31 12:37:44;;;;;;;29.92;23.52;;;20.40;99.90;;;;;;5046972;28;20049;-76
2022/07/31 12:40:21;;;;;;;30.95;24.45;;;20.40;99.90;;;;;;5042724;28;20033;-75
2022/07/31 12:42:47;;;;;;;28.17;24.00;;;20.40;99.90;;;;;;5045302;28;20032;-75
2022/07/31 12:45:13;;;;;;;30.50;24.08;;;20.30;99.90;;;;;;5045076;28;20036;-74
2022/07/31 12:47:39;;;;;;;29.15;24.08;;;20.30;99.90;;;;;;5043612;28;20045;-73